createdAt,value
2022-10-19T00:01:24.618Z,3.05
2022-10-19T00:03:56.095Z,2.65
2022-10-19T00:06:37.604Z,3.22
2022-10-19T00:09:14.072Z,4.40
2022-10-19T00:11:47.014Z,2.97
2022-10-19T01:25:10.230Z,2.53
2022-10-19T01:49:28.940Z,2.75
2022-10-19T01:52:05.011Z,2.63
2022-10-19T01:54:40.237Z,2.42
2022-10-19T01:57:12.273Z,2.45
2022-10-19T01:59:40.054Z,2.47
2022-10-19T02:02:31.693Z,3.00
2022-10-19T02:14:28.601Z,2.42
2022-10-19T02:21:34.095Z,2.92
2022-10-19T02:26:28.569Z,2.70
2022-10-19T02:49:42.851Z,2.50
2022-10-19T02:52:12.986Z,3.15
2022-10-19T03:00:49.251Z,3.03
2022-10-19T03:03:16.787Z,3.65
2022-10-19T03:06:25.106Z,3.35
2022-10-19T03:08:52.487Z,3.72
2022-10-19T03:11:48.557Z,2.70
2022-10-19T03:15:06.320Z,3.45
2022-10-19T03:22:35.305Z,4.45
2022-10-19T03:30:28.450Z,3.88
2022-10-19T03:37:34.801Z,4.78
2022-10-19T03:40:23.447Z,4.28
2022-10-19T04:45:15.346Z,12.07
2022-10-19T04:46:54.026Z,8.45
2022-10-19T04:47:42.775Z,10.13
2022-10-19T04:50:10.357Z,9.02
2022-10-19T04:52:38.020Z,10.50
2022-10-19T04:55:05.715Z,10.40
2022-10-19T04:57:32.958Z,11.10
2022-10-19T05:05:58.658Z,11.18
2022-10-19T05:08:26.110Z,12.65
2022-10-19T05:10:53.147Z,11.10
2022-10-19T05:13:20.477Z,13.35
2022-10-19T05:16:02.959Z,12.02
2022-10-19T05:18:31.093Z,13.48
2022-10-19T05:21:17.922Z,15.18
2022-10-19T05:23:45.570Z,11.18
2022-10-19T05:26:20.083Z,12.43
2022-10-19T05:28:56.708Z,13.57
2022-10-19T05:31:31.443Z,12.20
2022-10-19T05:34:00.398Z,10.40
2022-10-19T05:36:36.854Z,14.10
2022-10-19T05:39:13.929Z,9.90
2022-10-19T05:41:45.063Z,9.70
2022-10-19T05:44:23.290Z,8.10
2022-10-19T05:46:52.046Z,8.90
2022-10-19T05:49:22.208Z,8.07
2022-10-19T05:51:50.631Z,8.88
2022-10-19T05:54:19.047Z,10.13
2022-10-19T05:56:46.886Z,8.68
2022-10-19T05:59:20.981Z,8.05
2022-10-19T06:01:48.530Z,9.38
2022-10-19T06:06:45.851Z,8.63
2022-10-19T06:09:13.305Z,10.38
2022-10-19T06:11:42.206Z,11.32
2022-10-19T06:14:15.389Z,9.20
2022-10-19T06:16:45.677Z,9.30
2022-10-19T06:19:13.153Z,10.55
2022-10-19T06:21:43.275Z,9.13
2022-10-19T06:24:13.514Z,8.75
2022-10-19T06:26:40.847Z,8.73
2022-10-19T06:29:08.110Z,8.50
2022-10-19T06:31:36.645Z,8.65
2022-10-19T06:34:05.700Z,8.38
2022-10-19T06:36:33.970Z,7.47
2022-10-19T06:39:02.533Z,7.88
2022-10-19T06:41:31.686Z,7.15
2022-10-19T06:44:13.862Z,6.05
2022-10-19T06:46:40.992Z,6.07
2022-10-19T06:49:11.927Z,6.50
2022-10-19T06:51:40.776Z,5.20
2022-10-19T06:54:08.213Z,6.88
2022-10-19T06:56:35.303Z,8.18
2022-10-19T06:59:05.045Z,7.00
2022-10-19T07:01:32.264Z,6.97
2022-10-19T07:03:59.461Z,13.70
2022-10-19T07:06:28.809Z,9.98
2022-10-19T07:08:56.528Z,9.80
2022-10-19T07:11:23.780Z,10.73
2022-10-19T07:13:53.567Z,9.85
2022-10-19T07:16:43.124Z,9.80
2022-10-19T07:19:20.490Z,8.77
2022-10-19T07:21:51.916Z,8.45
2022-10-19T07:34:05.559Z,8.65
2022-10-19T07:36:35.983Z,8.63
2022-10-19T07:39:07.438Z,9.82
2022-10-19T08:05:00.210Z,14.68
2022-10-19T08:07:47.488Z,12.73
2022-10-19T08:10:15.511Z,12.77
2022-10-19T09:06:34.507Z,12.10
2022-10-19T09:09:03.394Z,9.18
2022-10-19T09:11:39.010Z,10.18
2022-10-19T09:14:21.074Z,7.53
2022-10-19T09:17:14.392Z,10.73
2022-10-19T09:19:41.824Z,7.13
2022-10-19T09:22:35.804Z,7.63
2022-10-19T09:25:20.254Z,9.23
2022-10-19T09:30:32.901Z,10.40
2022-10-19T09:33:05.410Z,11.82
2022-10-19T09:35:41.452Z,13.43
2022-10-19T09:38:15.011Z,8.30
2022-10-19T09:40:43.538Z,9.77
2022-10-19T09:43:21.799Z,10.15
2022-10-19T09:46:41.937Z,7.75
2022-10-19T09:54:39.142Z,10.30
2022-10-19T09:57:06.172Z,8.48
2022-10-19T09:59:37.030Z,10.25
2022-10-19T10:02:17.885Z,9.18
2022-10-19T10:05:13.979Z,8.27
2022-10-19T10:07:42.236Z,10.13
2022-10-19T10:10:28.094Z,10.07
2022-10-19T10:13:25.850Z,8.55
2022-10-19T10:16:01.556Z,6.68
2022-10-19T10:18:30.247Z,8.52
2022-10-19T10:21:14.762Z,6.13
2022-10-19T10:23:42.137Z,7.55
2022-10-19T10:26:20.044Z,10.27
2022-10-19T10:28:51.067Z,8.65
2022-10-19T10:31:29.648Z,6.20
2022-10-19T10:34:16.267Z,6.55
2022-10-19T10:37:02.039Z,7.18
2022-10-19T10:39:30.666Z,6.88
2022-10-19T10:42:09.578Z,7.75
2022-10-19T10:44:39.243Z,8.18
2022-10-19T10:47:16.561Z,6.18
2022-10-19T10:49:54.256Z,7.10
2022-10-19T10:52:22.285Z,5.63
2022-10-19T10:55:09.283Z,6.97
2022-10-19T10:57:46.492Z,4.35
2022-10-19T11:00:24.015Z,7.85
2022-10-19T11:03:16.126Z,5.60
2022-10-19T11:05:51.494Z,5.63
2022-10-19T11:09:07.047Z,4.93
2022-10-19T11:11:44.780Z,7.03
2022-10-19T11:14:40.854Z,6.93
2022-10-19T11:17:20.722Z,5.03
2022-10-19T11:19:51.272Z,4.82
2022-10-19T11:22:48.965Z,4.57
2022-10-19T11:25:32.839Z,3.78
2022-10-19T11:28:38.684Z,5.25
2022-10-19T11:31:22.330Z,3.42
2022-10-19T11:34:03.341Z,4.68
2022-10-19T11:36:52.918Z,3.08
2022-10-19T11:39:45.255Z,5.40
2022-10-19T11:45:31.113Z,3.85
2022-10-19T11:48:30.055Z,2.95
2022-10-19T11:51:39.320Z,3.75
2022-10-19T11:55:04.444Z,3.33
2022-10-19T11:57:57.260Z,6.18
2022-10-19T12:00:38.682Z,4.20
2022-10-19T12:03:54.424Z,4.10
2022-10-19T12:07:03.902Z,4.68
2022-10-19T12:09:49.275Z,3.30
2022-10-19T12:12:38.709Z,4.80
2022-10-19T12:15:11.930Z,3.13
2022-10-19T12:17:47.445Z,2.10
2022-10-19T12:20:33.269Z,3.22
2022-10-19T12:23:21.355Z,4.10
2022-10-19T12:25:50.030Z,3.42
2022-10-19T12:28:34.674Z,5.00
2022-10-19T12:31:06.632Z,5.32
2022-10-19T12:33:38.194Z,4.93
2022-10-19T12:36:23.964Z,3.38
2022-10-19T12:39:21.281Z,2.20
2022-10-19T12:42:43.473Z,3.85
2022-10-19T12:45:34.763Z,2.47
2022-10-19T12:48:11.016Z,4.30
2022-10-19T12:51:15.251Z,5.05
2022-10-19T12:53:49.196Z,3.28
2022-10-19T12:56:24.436Z,7.55
2022-10-19T12:59:07.808Z,4.18
2022-10-19T13:01:35.380Z,2.85
2022-10-19T13:04:29.798Z,4.50
2022-10-19T13:06:57.177Z,3.83
2022-10-19T13:14:58.944Z,5.45
2022-10-19T13:19:10.812Z,3.42
2022-10-19T13:21:59.693Z,4.20
2022-10-19T13:35:27.833Z,5.30
2022-10-19T13:58:03.086Z,6.20
2022-10-19T14:01:20.217Z,4.10
2022-10-19T14:04:21.264Z,6.22
2022-10-19T14:06:56.573Z,6.35
2022-10-19T14:09:43.959Z,7.13
2022-10-19T14:12:25.800Z,6.15
2022-10-19T14:14:54.753Z,4.68
2022-10-19T14:17:25.311Z,6.00
2022-10-19T14:19:59.267Z,4.63
2022-10-19T14:22:36.209Z,6.38
2022-10-19T14:25:32.835Z,10.32
2022-10-19T14:42:01.615Z,12.15
2022-10-19T14:44:46.758Z,9.48
2022-10-19T15:43:56.949Z,8.25
2022-10-19T15:46:33.323Z,7.28
2022-10-19T15:49:42.813Z,6.20
2022-10-19T15:52:25.764Z,8.65
2022-10-19T15:54:56.350Z,10.02
2022-10-19T15:57:35.711Z,7.32
2022-10-19T16:00:18.210Z,9.38
2022-10-19T16:18:08.803Z,10.35
2022-10-19T16:20:37.343Z,7.97
2022-10-19T16:23:04.802Z,9.98
2022-10-19T16:31:17.439Z,10.25
2022-10-19T16:33:45.581Z,8.63
2022-10-19T16:36:15.566Z,11.57
2022-10-19T16:38:43.817Z,9.48
2022-10-19T16:41:12.410Z,10.77
2022-10-19T16:43:40.673Z,12.88
2022-10-19T16:46:15.814Z,14.52
2022-10-19T16:48:44.007Z,18.08
2022-10-19T16:51:44.198Z,20.02
2022-10-19T16:54:56.732Z,16.00
2022-10-19T16:58:43.362Z,23.75
2022-10-19T17:01:57.834Z,31.23
2022-10-19T17:04:26.700Z,37.80
2022-10-19T17:07:04.777Z,26.80
2022-10-19T17:18:11.426Z,10.10
2022-10-19T17:20:38.477Z,10.15
2022-10-19T17:23:05.877Z,8.57
2022-10-19T17:25:33.086Z,9.18
2022-10-19T17:28:00.301Z,7.55
2022-10-19T17:30:29.090Z,8.82
2022-10-19T17:32:56.676Z,7.32
2022-10-19T17:35:23.932Z,10.55
2022-10-19T17:37:51.116Z,6.88
2022-10-19T17:40:18.533Z,6.95
2022-10-19T17:42:45.655Z,6.75
2022-10-19T17:45:12.738Z,5.90
2022-10-19T17:47:40.285Z,6.60
2022-10-19T17:50:10.343Z,6.45
2022-10-19T17:52:37.781Z,6.40
2022-10-19T17:55:13.706Z,5.15
2022-10-19T17:57:40.994Z,7.40
2022-10-19T18:00:09.119Z,6.40
2022-10-19T18:02:45.252Z,6.60
2022-10-19T18:05:13.034Z,7.75
2022-10-19T18:07:42.806Z,10.60
2022-10-19T18:10:10.175Z,7.63
2022-10-19T18:12:37.827Z,8.88
2022-10-19T18:15:06.783Z,10.50
2022-10-19T18:17:34.667Z,11.23
2022-10-19T18:20:04.827Z,10.50
2022-10-19T18:22:32.926Z,8.63
2022-10-19T18:25:00.981Z,8.75
2022-10-19T18:27:29.161Z,8.85
2022-10-19T18:29:56.316Z,9.77
2022-10-19T18:32:23.527Z,10.73
2022-10-19T18:34:51.197Z,10.95
2022-10-19T18:37:18.515Z,9.82
2022-10-19T18:39:45.580Z,10.95
2022-10-19T18:42:13.532Z,9.85
2022-10-19T18:44:40.753Z,9.30
2022-10-19T18:47:08.447Z,9.88
2022-10-19T18:49:36.074Z,10.50
2022-10-19T18:52:03.826Z,10.05
2022-10-19T18:54:31.306Z,9.88
2022-10-19T18:56:59.140Z,9.55
2022-10-19T19:02:00.261Z,8.93
2022-10-19T19:04:28.420Z,9.98
2022-10-19T19:06:57.400Z,8.75
2022-10-19T19:09:25.452Z,9.10
2022-10-19T19:11:54.308Z,8.90
2022-10-19T19:14:21.656Z,10.38
2022-10-19T19:16:49.707Z,10.13
2022-10-19T19:19:19.621Z,9.18
2022-10-19T19:21:49.878Z,8.32
2022-10-19T19:24:21.918Z,9.00
2022-10-19T19:26:53.592Z,7.50
2022-10-19T19:29:22.836Z,8.07
2022-10-19T19:31:52.761Z,8.13
2022-10-19T19:34:20.573Z,7.50
2022-10-19T19:36:49.089Z,8.02
2022-10-19T19:39:20.397Z,7.38
2022-10-19T19:41:49.930Z,7.97
2022-10-19T19:44:18.156Z,7.35
2022-10-19T19:46:46.010Z,7.63
2022-10-19T19:49:13.367Z,9.15
2022-10-19T19:51:40.940Z,8.73
2022-10-19T19:54:08.200Z,9.57
2022-10-19T19:56:37.532Z,9.40
2022-10-19T19:59:07.172Z,11.68
2022-10-19T20:01:36.677Z,12.00
2022-10-19T20:04:06.321Z,10.13
2022-10-19T20:06:35.666Z,9.15
2022-10-19T20:09:03.337Z,10.88
2022-10-19T20:11:31.446Z,9.30
2022-10-19T20:13:59.197Z,10.18
2022-10-19T20:16:31.838Z,9.70
2022-10-19T20:19:09.718Z,9.70
2022-10-19T20:21:37.459Z,10.25
2022-10-19T20:24:05.115Z,10.88
2022-10-19T20:26:32.930Z,9.95
2022-10-19T20:29:03.832Z,7.72
2022-10-19T20:31:33.622Z,9.35
2022-10-19T20:34:00.698Z,8.25
2022-10-19T20:36:29.913Z,8.02
2022-10-19T20:38:58.807Z,8.10
2022-10-19T20:41:28.739Z,7.80
2022-10-19T20:43:56.636Z,6.22
2022-10-19T20:46:28.424Z,8.32
2022-10-19T20:48:59.654Z,7.90
2022-10-19T20:51:31.839Z,9.05
2022-10-19T20:54:03.377Z,7.53
2022-10-19T20:56:34.937Z,7.57
2022-10-19T20:59:22.141Z,7.75
2022-10-19T21:01:52.207Z,7.43
2022-10-19T21:04:19.518Z,8.30
2022-10-19T21:06:50.647Z,8.23
2022-10-19T21:09:28.010Z,7.15
2022-10-19T21:11:55.404Z,5.95
2022-10-19T21:14:28.463Z,7.88
2022-10-19T21:16:58.820Z,7.95
2022-10-19T21:19:29.147Z,8.43
2022-10-19T21:22:02.278Z,7.93
2022-10-19T21:24:34.701Z,8.30
2022-10-19T21:27:07.421Z,7.25
2022-10-19T21:32:04.178Z,7.35
2022-10-19T21:34:32.265Z,8.43
2022-10-19T21:37:00.023Z,9.82
2022-10-19T21:39:29.066Z,8.95
2022-10-19T21:41:56.573Z,8.73
2022-10-19T21:44:23.780Z,9.40
2022-10-19T21:46:51.129Z,10.48
2022-10-19T21:49:18.839Z,9.65
2022-10-19T21:51:56.222Z,10.75
2022-10-19T21:54:25.462Z,10.02
2022-10-19T21:56:53.270Z,9.13
2022-10-19T21:59:20.736Z,9.80
2022-10-19T22:01:48.210Z,8.77
2022-10-19T22:04:18.311Z,10.75
2022-10-19T22:06:46.578Z,9.65
2022-10-19T22:09:19.887Z,9.00
2022-10-19T22:11:48.831Z,10.30
2022-10-19T22:14:17.205Z,8.52
2022-10-19T22:16:44.781Z,8.65
2022-10-19T22:19:13.064Z,10.27
2022-10-19T22:21:40.949Z,9.07
2022-10-19T22:24:13.474Z,8.07
2022-10-19T22:26:45.590Z,8.32
2022-10-19T22:29:13.552Z,8.63
2022-10-19T22:31:40.803Z,8.05
2022-10-19T22:34:15.285Z,8.13
2022-10-19T22:36:44.316Z,7.50
2022-10-19T22:39:12.486Z,7.85
2022-10-19T22:41:39.730Z,9.18
2022-10-19T22:44:06.998Z,8.45
2022-10-19T22:46:34.565Z,8.68
2022-10-19T22:49:01.834Z,8.38
2022-10-19T22:51:29.455Z,9.27
2022-10-19T22:53:56.719Z,10.57
2022-10-19T22:56:24.094Z,8.77
2022-10-19T22:58:51.355Z,8.82
2022-10-19T23:01:19.345Z,10.45
2022-10-19T23:03:46.471Z,7.38
2022-10-19T23:06:15.494Z,8.00
2022-10-19T23:08:44.431Z,6.82
2022-10-19T23:11:12.617Z,9.27
2022-10-19T23:13:39.994Z,8.32
2022-10-19T23:16:09.000Z,8.88
2022-10-19T23:18:39.397Z,7.05
2022-10-19T23:21:11.518Z,8.63
2022-10-19T23:23:39.629Z,7.80
2022-10-19T23:26:17.202Z,6.85
2022-10-19T23:28:47.447Z,8.48
2022-10-19T23:31:24.331Z,8.63
2022-10-19T23:33:55.073Z,14.15
2022-10-19T23:36:28.949Z,11.77
2022-10-19T23:38:58.494Z,12.70
2022-10-19T23:41:25.961Z,12.35
2022-10-19T23:43:53.100Z,13.93
2022-10-19T23:46:20.674Z,11.65
2022-10-19T23:48:47.802Z,11.77
2022-10-19T23:51:19.057Z,13.80
2022-10-19T23:53:49.354Z,12.95
2022-10-19T23:56:26.032Z,12.57
2022-10-19T23:58:53.478Z,13.30
